Аэропорт
Международный аэропорт Чингисхан (ZMUB)

 ZMUB / ULN

Mongolia
MN-1
Улан-Батор
 47.84310, 106.76700  / 4364 ft

 ZMUB 201630Z VRB01MPS 9999 FEW033 BKN100 M17/M19 Q1021 NOSIG RMK QFE658.2 82 NT
 TAF ZMUB 201030Z 2012/2118 VRB02MPS 9999 SCT100 TNM24/2023Z TXM10/2107Z

2020 © VATRUS division (Privacy Policy)